sensor_id;sensor_type;location;lat;lon;timestamp;pressure;altitude;pressure_sealevel;temperature;humidity
46942;BME280;32676;52.630;4.896;2022-12-18T00:01:24;99428.34;;;-2.40;82.65
46942;BME280;32676;52.630;4.896;2022-12-18T00:03:54;99427.47;;;-2.39;82.65
46942;BME280;32676;52.630;4.896;2022-12-18T00:06:21;99442.03;;;-2.38;82.71
46942;BME280;32676;52.630;4.896;2022-12-18T00:08:48;99448.03;;;-2.39;82.69
46942;BME280;32676;52.630;4.896;2022-12-18T00:11:16;99432.59;;;-2.39;82.61
46942;BME280;32676;52.630;4.896;2022-12-18T00:13:45;99412.06;;;-2.42;82.54
46942;BME280;32676;52.630;4.896;2022-12-18T00:16:13;99393.19;;;-2.50;82.42
46942;BME280;32676;52.630;4.896;2022-12-18T00:18:41;99399.19;;;-2.48;82.41
46942;BME280;32676;52.630;4.896;2022-12-18T00:21:09;99379.50;;;-2.52;82.38
46942;BME280;32676;52.630;4.896;2022-12-18T00:23:37;99376.91;;;-2.54;82.28
46942;BME280;32676;52.630;4.896;2022-12-18T00:26:05;99352.97;;;-2.63;82.17
46942;BME280;32676;52.630;4.896;2022-12-18T00:28:32;99346.94;;;-2.62;82.07
46942;BME280;32676;52.630;4.896;2022-12-18T00:31:02;99312.69;;;-2.69;82.09
46942;BME280;32676;52.630;4.896;2022-12-18T00:33:28;99316.13;;;-2.68;81.94
46942;BME280;32676;52.630;4.896;2022-12-18T00:36:01;99301.56;;;-2.79;81.91
46942;BME280;32676;52.630;4.896;2022-12-18T00:38:28;99327.25;;;-2.68;81.86
46942;BME280;32676;52.630;4.896;2022-12-18T00:40:54;99345.22;;;-2.60;81.86
46942;BME280;32676;52.630;4.896;2022-12-18T00:43:21;99339.22;;;-2.62;81.75
46942;BME280;32676;52.630;4.896;2022-12-18T00:45:46;99340.09;;;-2.63;81.93
46942;BME280;32676;52.630;4.896;2022-12-18T00:48:14;99340.94;;;-2.63;81.90
46942;BME280;32676;52.630;4.896;2022-12-18T00:50:41;99337.53;;;-2.66;82.14
46942;BME280;32676;52.630;4.896;2022-12-18T00:53:07;99338.38;;;-2.64;82.17
46942;BME280;32676;52.630;4.896;2022-12-18T00:55:34;99323.00;;;-2.80;82.30
46942;BME280;32676;52.630;4.896;2022-12-18T00:58:00;99364.94;;;-2.58;82.50
46942;BME280;32676;52.630;4.896;2022-12-18T01:00:27;99350.38;;;-2.60;82.72
46942;BME280;32676;52.630;4.896;2022-12-18T01:02:53;99348.66;;;-2.61;82.90
46942;BME280;32676;52.630;4.896;2022-12-18T01:05:21;99364.09;;;-2.58;82.95
46942;BME280;32676;52.630;4.896;2022-12-18T01:07:48;99316.16;;;-2.78;83.13
46942;BME280;32676;52.630;4.896;2022-12-18T01:10:14;99305.03;;;-2.83;83.14
46942;BME280;32676;52.630;4.896;2022-12-18T01:12:41;99326.44;;;-2.75;83.19
46942;BME280;32676;52.630;4.896;2022-12-18T01:15:09;99338.38;;;-2.64;83.56
46942;BME280;32676;52.630;4.896;2022-12-18T01:17:36;99348.66;;;-2.64;83.31
46942;BME280;32676;52.630;4.896;2022-12-18T01:20:03;99358.06;;;-2.60;83.61
46942;BME280;32676;52.630;4.896;2022-12-18T01:22:33;99363.22;;;-2.59;83.81
46942;BME280;32676;52.630;4.896;2022-12-18T01:25:00;99375.22;;;-2.58;83.65
46942;BME280;32676;52.630;4.896;2022-12-18T01:27:27;99365.78;;;-2.57;83.89
46942;BME280;32676;52.630;4.896;2022-12-18T01:29:53;99377.81;;;-2.56;83.93
46942;BME280;32676;52.630;4.896;2022-12-18T01:32:20;99380.38;;;-2.55;83.91
46942;BME280;32676;52.630;4.896;2022-12-18T01:34:47;99374.38;;;-2.61;83.93
46942;BME280;32676;52.630;4.896;2022-12-18T01:37:13;99384.63;;;-2.55;84.00
46942;BME280;32676;52.630;4.896;2022-12-18T01:39:41;99359.81;;;-2.59;84.08
46942;BME280;32676;52.630;4.896;2022-12-18T01:42:11;99374.38;;;-2.58;84.27
46942;BME280;32676;52.630;4.896;2022-12-18T01:44:58;99401.75;;;-2.51;84.22
46942;BME280;32676;52.630;4.896;2022-12-18T01:47:27;99418.06;;;-2.49;84.13
46942;BME280;32676;52.630;4.896;2022-12-18T01:49:56;99422.34;;;-2.45;84.23
46942;BME280;32676;52.630;4.896;2022-12-18T01:52:24;99412.94;;;-2.49;84.31
46942;BME280;32676;52.630;4.896;2022-12-18T01:54:54;99435.19;;;-2.43;84.32
46942;BME280;32676;52.630;4.896;2022-12-18T01:57:22;99436.91;;;-2.42;84.24
46942;BME280;32676;52.630;4.896;2022-12-18T01:59:52;99446.34;;;-2.40;84.23
46942;BME280;32676;52.630;4.896;2022-12-18T02:02:20;99450.63;;;-2.43;84.12
46942;BME280;32676;52.630;4.896;2022-12-18T02:04:47;99464.31;;;-2.35;84.16
46942;BME280;32676;52.630;4.896;2022-12-18T02:07:19;99443.75;;;-2.43;83.92
46942;BME280;32676;52.630;4.896;2022-12-18T02:09:50;99443.78;;;-2.40;83.86
46942;BME280;32676;52.630;4.896;2022-12-18T02:12:24;99442.03;;;-2.41;83.98
46942;BME280;32676;52.630;4.896;2022-12-18T02:14:56;99434.31;;;-2.44;83.85
46942;BME280;32676;52.630;4.896;2022-12-18T02:17:30;99426.63;;;-2.47;83.92
46942;BME280;32676;52.630;4.896;2022-12-18T02:20:08;99410.34;;;-2.51;83.84
46942;BME280;32676;52.630;4.896;2022-12-18T02:22:48;99413.78;;;-2.50;83.98
46942;BME280;32676;52.630;4.896;2022-12-18T02:25:28;99389.81;;;-2.61;83.80
46942;BME280;32676;52.630;4.896;2022-12-18T02:28:04;99400.06;;;-2.55;83.73
46942;BME280;32676;52.630;4.896;2022-12-18T02:30:33;99399.22;;;-2.54;83.96
46942;BME280;32676;52.630;4.896;2022-12-18T02:33:02;99386.34;;;-2.57;83.93
46942;BME280;32676;52.630;4.896;2022-12-18T02:35:31;99366.66;;;-2.61;83.92
46942;BME280;32676;52.630;4.896;2022-12-18T02:37:59;99368.38;;;-2.65;83.93
46942;BME280;32676;52.630;4.896;2022-12-18T02:40:28;99357.25;;;-2.65;84.00
46942;BME280;32676;52.630;4.896;2022-12-18T02:42:55;99352.97;;;-2.66;83.92
46942;BME280;32676;52.630;4.896;2022-12-18T02:45:23;99347.81;;;-2.68;83.69
46942;BME280;32676;52.630;4.896;2022-12-18T02:47:49;99340.09;;;-2.70;83.83
46942;BME280;32676;52.630;4.896;2022-12-18T02:50:21;99326.44;;;-2.75;83.87
46942;BME280;32676;52.630;4.896;2022-12-18T02:52:59;99308.44;;;-2.81;84.04
46942;BME280;32676;52.630;4.896;2022-12-18T02:55:39;99316.16;;;-2.78;84.19
46942;BME280;32676;52.630;4.896;2022-12-18T02:58:14;99328.13;;;-2.74;84.16
46942;BME280;32676;52.630;4.896;2022-12-18T03:00:50;99336.69;;;-2.72;84.28
46942;BME280;32676;52.630;4.896;2022-12-18T03:03:21;99335.84;;;-2.77;84.23
46942;BME280;32676;52.630;4.896;2022-12-18T03:05:53;99329.00;;;-2.75;84.04
46942;BME280;32676;52.630;4.896;2022-12-18T03:08:23;99320.41;;;-2.77;84.24
46942;BME280;32676;52.630;4.896;2022-12-18T03:10:55;99288.75;;;-2.85;84.18
46942;BME280;32676;52.630;4.896;2022-12-18T03:13:28;99284.47;;;-2.86;84.32
46942;BME280;32676;52.630;4.896;2022-12-18T03:15:58;99271.63;;;-2.92;84.15
46942;BME280;32676;52.630;4.896;2022-12-18T03:18:30;99276.78;;;-2.89;84.34
46942;BME280;32676;52.630;4.896;2022-12-18T03:21:04;99247.66;;;-3.00;84.31
46942;BME280;32676;52.630;4.896;2022-12-18T03:23:35;99228.88;;;-3.05;84.24
46942;BME280;32676;52.630;4.896;2022-12-18T03:26:05;99247.66;;;-2.97;84.22
46942;BME280;32676;52.630;4.896;2022-12-18T03:28:36;99223.72;;;-3.05;84.30
46942;BME280;32676;52.630;4.896;2022-12-18T03:31:08;99215.19;;;-3.11;84.42
46942;BME280;32676;52.630;4.896;2022-12-18T03:33:39;99215.13;;;-3.04;84.65
46942;BME280;32676;52.630;4.896;2022-12-18T03:36:08;99239.97;;;-3.00;84.84
46942;BME280;32676;52.630;4.896;2022-12-18T03:38:34;99232.25;;;-3.00;84.55
46942;BME280;32676;52.630;4.896;2022-12-18T03:41:07;99222.88;;;-3.12;84.62
46942;BME280;32676;52.630;4.896;2022-12-18T03:43:44;99249.38;;;-2.96;84.67
46942;BME280;32676;52.630;4.896;2022-12-18T03:46:24;99224.56;;;-3.06;84.69
46942;BME280;32676;52.630;4.896;2022-12-18T03:48:58;99236.53;;;-2.99;84.75
46942;BME280;32676;52.630;4.896;2022-12-18T03:51:29;99220.28;;;-3.04;84.54
46942;BME280;32676;52.630;4.896;2022-12-18T03:54:00;99214.31;;;-3.08;84.88
46942;BME280;32676;52.630;4.896;2022-12-18T03:56:30;99211.72;;;-3.06;84.59
46942;BME280;32676;52.630;4.896;2022-12-18T03:58:59;99212.56;;;-3.08;84.66
46942;BME280;32676;52.630;4.896;2022-12-18T04:01:32;99204.03;;;-3.10;84.84
46942;BME280;32676;52.630;4.896;2022-12-18T04:04:01;99223.69;;;-3.02;84.60
46942;BME280;32676;52.630;4.896;2022-12-18T04:06:28;99237.38;;;-3.00;84.82
46942;BME280;32676;52.630;4.896;2022-12-18T04:08:56;99228.00;;;-3.03;84.75
46942;BME280;32676;52.630;4.896;2022-12-18T04:11:23;99207.47;;;-3.14;84.71
46942;BME280;32676;52.630;4.896;2022-12-18T04:13:50;99213.44;;;-3.09;84.82
46942;BME280;32676;52.630;4.896;2022-12-18T04:16:16;99227.16;;;-3.03;84.65
46942;BME280;32676;52.630;4.896;2022-12-18T04:18:44;99216.88;;;-3.06;84.72
46942;BME280;32676;52.630;4.896;2022-12-18T04:21:10;99215.13;;;-3.06;84.74
46942;BME280;32676;52.630;4.896;2022-12-18T04:23:37;99222.00;;;-3.06;84.62
46942;BME280;32676;52.630;4.896;2022-12-18T04:26:03;99201.44;;;-3.11;84.56
46942;BME280;32676;52.630;4.896;2022-12-18T04:28:30;99191.22;;;-3.13;84.60
46942;BME280;32676;52.630;4.896;2022-12-18T04:30:56;99192.91;;;-3.15;84.62
46942;BME280;32676;52.630;4.896;2022-12-18T04:33:23;99196.34;;;-3.13;84.60
46942;BME280;32676;52.630;4.896;2022-12-18T04:35:50;99191.22;;;-3.16;84.46
46942;BME280;32676;52.630;4.896;2022-12-18T04:38:17;99207.47;;;-3.11;84.58
46942;BME280;32676;52.630;4.896;2022-12-18T04:40:43;99218.59;;;-3.09;84.44
46942;BME280;32676;52.630;4.896;2022-12-18T04:43:10;99211.72;;;-3.10;84.44
46942;BME280;32676;52.630;4.896;2022-12-18T04:45:36;99215.13;;;-3.08;84.25
46942;BME280;32676;52.630;4.896;2022-12-18T04:48:03;99225.41;;;-3.08;84.34
46942;BME280;32676;52.630;4.896;2022-12-18T04:50:30;99209.16;;;-3.11;84.23
46942;BME280;32676;52.630;4.896;2022-12-18T04:52:58;99197.22;;;-3.21;84.34
46942;BME280;32676;52.630;4.896;2022-12-18T04:55:25;99211.72;;;-3.10;84.18
46942;BME280;32676;52.630;4.896;2022-12-18T04:57:51;99201.50;;;-3.13;84.08
46942;BME280;32676;52.630;4.896;2022-12-18T05:00:18;99184.38;;;-3.23;84.08
46942;BME280;32676;52.630;4.896;2022-12-18T05:02:45;99181.81;;;-3.24;84.20
46942;BME280;32676;52.630;4.896;2022-12-18T05:05:11;99197.19;;;-3.15;84.14
46942;BME280;32676;52.630;4.896;2022-12-18T05:07:38;99194.63;;;-3.17;84.11
46942;BME280;32676;52.630;4.896;2022-12-18T05:10:07;99203.19;;;-3.15;84.12
46942;BME280;32676;52.630;4.896;2022-12-18T05:12:33;99185.25;;;-3.27;83.95
46942;BME280;32676;52.630;4.896;2022-12-18T05:15:20;99232.28;;;-3.06;84.02
46942;BME280;32676;52.630;4.896;2022-12-18T05:17:46;99216.88;;;-3.10;83.86
46942;BME280;32676;52.630;4.896;2022-12-18T05:20:13;99196.34;;;-3.19;83.70
46942;BME280;32676;52.630;4.896;2022-12-18T05:22:39;99202.31;;;-3.15;83.72
46942;BME280;32676;52.630;4.896;2022-12-18T05:25:09;99181.81;;;-3.21;83.70
46942;BME280;32676;52.630;4.896;2022-12-18T05:27:36;99162.16;;;-3.27;83.66
46942;BME280;32676;52.630;4.896;2022-12-18T05:30:03;99155.28;;;-3.28;83.56
46942;BME280;32676;52.630;4.896;2022-12-18T05:32:30;99127.91;;;-3.35;83.39
46942;BME280;32676;52.630;4.896;2022-12-18T05:34:56;99109.97;;;-3.40;83.17
46942;BME280;32676;52.630;4.896;2022-12-18T05:37:23;99062.97;;;-3.59;83.35
46942;BME280;32676;52.630;4.896;2022-12-18T05:39:49;99091.19;;;-3.53;83.37
46942;BME280;32676;52.630;4.896;2022-12-18T05:42:17;99102.28;;;-3.41;83.26
46942;BME280;32676;52.630;4.896;2022-12-18T05:44:44;99086.88;;;-3.44;83.13
46942;BME280;32676;52.630;4.896;2022-12-18T05:47:10;99070.63;;;-3.50;83.18
46942;BME280;32676;52.630;4.896;2022-12-18T05:49:37;99049.28;;;-3.58;83.21
46942;BME280;32676;52.630;4.896;2022-12-18T05:52:03;99039.84;;;-3.59;83.03
46942;BME280;32676;52.630;4.896;2022-12-18T05:54:30;99015.94;;;-3.65;82.88
46942;BME280;32676;52.630;4.896;2022-12-18T05:56:57;98993.69;;;-3.70;82.93
46942;BME280;32676;52.630;4.896;2022-12-18T05:59:25;98962.13;;;-3.81;82.88
46942;BME280;32676;52.630;4.896;2022-12-18T06:01:51;98950.13;;;-3.80;82.76
46942;BME280;32676;52.630;4.896;2022-12-18T06:04:18;98943.31;;;-3.84;82.59
46942;BME280;32676;52.630;4.896;2022-12-18T06:06:44;98954.41;;;-3.81;82.72
46942;BME280;32676;52.630;4.896;2022-12-18T06:09:11;98952.69;;;-3.79;82.59
46942;BME280;32676;52.630;4.896;2022-12-18T06:11:38;98945.03;;;-3.82;82.32
46942;BME280;32676;52.630;4.896;2022-12-18T06:14:05;98926.22;;;-3.89;82.20
46942;BME280;32676;52.630;4.896;2022-12-18T06:16:33;98929.63;;;-3.87;82.50
46942;BME280;32676;52.630;4.896;2022-12-18T06:19:02;98945.03;;;-3.83;82.13
46942;BME280;32676;52.630;4.896;2022-12-18T06:21:29;98937.34;;;-3.83;82.08
46942;BME280;32676;52.630;4.896;2022-12-18T06:23:56;98943.31;;;-3.84;82.20
46942;BME280;32676;52.630;4.896;2022-12-18T06:26:22;98925.38;;;-3.89;82.00
46942;BME280;32676;52.630;4.896;2022-12-18T06:28:49;98919.44;;;-3.96;81.89
46942;BME280;32676;52.630;4.896;2022-12-18T06:31:15;98940.75;;;-3.83;81.88
46942;BME280;32676;52.630;4.896;2022-12-18T06:33:43;98955.25;;;-3.80;81.83
46942;BME280;32676;52.630;4.896;2022-12-18T06:36:12;98943.34;;;-3.91;81.61
46942;BME280;32676;52.630;4.896;2022-12-18T06:38:41;98979.19;;;-3.75;81.60
46942;BME280;32676;52.630;4.896;2022-12-18T06:41:08;98974.09;;;-3.81;81.60
46942;BME280;32676;52.630;4.896;2022-12-18T06:43:34;98991.13;;;-3.71;81.49
46942;BME280;32676;52.630;4.896;2022-12-18T06:46:02;98980.91;;;-3.74;81.66
46942;BME280;32676;52.630;4.896;2022-12-18T06:48:29;98968.94;;;-3.78;81.78
46942;BME280;32676;52.630;4.896;2022-12-18T06:50:57;98962.09;;;-3.79;81.46
46942;BME280;32676;52.630;4.896;2022-12-18T06:53:24;98951.00;;;-3.83;81.28
46942;BME280;32676;52.630;4.896;2022-12-18T06:55:51;98934.78;;;-3.90;81.13
46942;BME280;32676;52.630;4.896;2022-12-18T06:58:17;98929.66;;;-3.90;81.39
46942;BME280;32676;52.630;4.896;2022-12-18T07:00:43;98922.84;;;-3.94;81.34
46942;BME280;32676;52.630;4.896;2022-12-18T07:03:10;98889.50;;;-3.98;81.03
46942;BME280;32676;52.630;4.896;2022-12-18T07:05:39;98874.16;;;-4.05;80.78
46942;BME280;32676;52.630;4.896;2022-12-18T07:08:08;98844.25;;;-4.10;80.72
46942;BME280;32676;52.630;4.896;2022-12-18T07:10:40;98825.47;;;-4.15;81.00
46942;BME280;32676;52.630;4.896;2022-12-18T07:13:07;98834.00;;;-4.13;80.82
46942;BME280;32676;52.630;4.896;2022-12-18T07:15:34;98842.56;;;-4.14;80.76
46942;BME280;32676;52.630;4.896;2022-12-18T07:18:00;98837.41;;;-4.11;80.60
46942;BME280;32676;52.630;4.896;2022-12-18T07:20:26;98814.38;;;-4.19;80.92
46942;BME280;32676;52.630;4.896;2022-12-18T07:22:53;98803.28;;;-4.24;80.72
46942;BME280;32676;52.630;4.896;2022-12-18T07:25:21;98799.88;;;-4.25;80.54
46942;BME280;32676;52.630;4.896;2022-12-18T07:27:47;98805.84;;;-4.22;80.79
46942;BME280;32676;52.630;4.896;2022-12-18T07:30:14;98811.84;;;-4.23;80.75
46942;BME280;32676;52.630;4.896;2022-12-18T07:32:40;98808.47;;;-4.29;80.66
46942;BME280;32676;52.630;4.896;2022-12-18T07:35:07;98850.28;;;-4.13;80.55
46942;BME280;32676;52.630;4.896;2022-12-18T07:37:33;98864.78;;;-4.07;80.82
46942;BME280;32676;52.630;4.896;2022-12-18T07:40:00;98868.16;;;-4.05;80.72
46942;BME280;32676;52.630;4.896;2022-12-18T07:42:27;98881.84;;;-4.06;80.57
46942;BME280;32676;52.630;4.896;2022-12-18T07:44:57;98892.09;;;-4.00;80.66
46942;BME280;32676;52.630;4.896;2022-12-18T07:47:23;98883.56;;;-4.02;80.61
46942;BME280;32676;52.630;4.896;2022-12-18T07:49:50;98890.38;;;-4.04;80.72
46942;BME280;32676;52.630;4.896;2022-12-18T07:52:16;98887.81;;;-4.01;80.51
46942;BME280;32676;52.630;4.896;2022-12-18T07:54:43;98888.69;;;-4.02;80.37
46942;BME280;32676;52.630;4.896;2022-12-18T07:57:09;98888.69;;;-4.05;80.40
46942;BME280;32676;52.630;4.896;2022-12-18T07:59:37;98874.19;;;-4.12;80.46
46942;BME280;32676;52.630;4.896;2022-12-18T08:02:04;98871.59;;;-4.06;80.37
46942;BME280;32676;52.630;4.896;2022-12-18T08:04:30;98886.97;;;-4.03;80.43
46942;BME280;32676;52.630;4.896;2022-12-18T08:06:56;98908.31;;;-3.98;80.53
46942;BME280;32676;52.630;4.896;2022-12-18T08:09:23;98928.81;;;-3.92;80.61
46942;BME280;32676;52.630;4.896;2022-12-18T08:11:49;98926.25;;;-3.92;80.50
46942;BME280;32676;52.630;4.896;2022-12-18T08:14:16;98922.84;;;-3.94;80.39
46942;BME280;32676;52.630;4.896;2022-12-18T08:16:44;98927.97;;;-3.92;80.87
46942;BME280;32676;52.630;4.896;2022-12-18T08:19:10;98941.63;;;-3.89;80.68
46942;BME280;32676;52.630;4.896;2022-12-18T08:21:37;98953.56;;;-3.88;80.81
46942;BME280;32676;52.630;4.896;2022-12-18T08:24:04;98967.25;;;-3.82;80.91
46942;BME280;32676;52.630;4.896;2022-12-18T08:26:31;98971.53;;;-3.84;80.87
46942;BME280;32676;52.630;4.896;2022-12-18T08:28:59;98979.19;;;-3.78;81.10
46942;BME280;32676;52.630;4.896;2022-12-18T08:31:26;99021.94;;;-3.71;81.08
46942;BME280;32676;52.630;4.896;2022-12-18T08:33:55;99035.59;;;-3.66;80.97
46942;BME280;32676;52.630;4.896;2022-12-18T08:36:22;99051.00;;;-3.63;81.15
46942;BME280;32676;52.630;4.896;2022-12-18T08:38:49;99051.84;;;-3.62;81.27
46942;BME280;32676;52.630;4.896;2022-12-18T08:41:16;99068.09;;;-3.59;81.29
46942;BME280;32676;52.630;4.896;2022-12-18T08:43:43;99098.88;;;-3.50;81.13
46942;BME280;32676;52.630;4.896;2022-12-18T08:46:32;99116.00;;;-3.45;81.05
46942;BME280;32676;52.630;4.896;2022-12-18T08:49:01;99137.34;;;-3.40;81.23
46942;BME280;32676;52.630;4.896;2022-12-18T08:51:28;99162.16;;;-3.33;81.22
46942;BME280;32676;52.630;4.896;2022-12-18T08:53:55;99179.28;;;-3.29;81.07
46942;BME280;32676;52.630;4.896;2022-12-18T08:56:22;99204.09;;;-3.23;80.98
46942;BME280;32676;52.630;4.896;2022-12-18T08:58:51;99252.00;;;-3.12;81.00
46942;BME280;32676;52.630;4.896;2022-12-18T09:01:18;99276.81;;;-3.04;80.95
46942;BME280;32676;52.630;4.896;2022-12-18T09:03:48;99317.91;;;-2.95;80.70
46942;BME280;32676;52.630;4.896;2022-12-18T09:06:17;99358.16;;;-2.86;80.60
46942;BME280;32676;52.630;4.896;2022-12-18T09:08:43;99397.53;;;-2.74;80.45
46942;BME280;32676;52.630;4.896;2022-12-18T09:11:13;99444.69;;;-2.65;80.32
46942;BME280;32676;52.630;4.896;2022-12-18T09:13:40;99464.38;;;-2.58;80.16
46942;BME280;32676;52.630;4.896;2022-12-18T09:16:07;99485.81;;;-2.56;80.01
46942;BME280;32676;52.630;4.896;2022-12-18T09:18:35;99496.06;;;-2.50;79.86
46942;BME280;32676;52.630;4.896;2022-12-18T09:21:07;99521.78;;;-2.44;79.61
46942;BME280;32676;52.630;4.896;2022-12-18T09:23:35;99523.50;;;-2.43;79.55
46942;BME280;32676;52.630;4.896;2022-12-18T09:26:01;99532.06;;;-2.41;79.08
46942;BME280;32676;52.630;4.896;2022-12-18T09:28:28;99576.66;;;-2.33;79.22
46942;BME280;32676;52.630;4.896;2022-12-18T09:30:54;99604.94;;;-2.25;79.08
46942;BME280;32676;52.630;4.896;2022-12-18T09:33:21;99621.25;;;-2.21;79.03
46942;BME280;32676;52.630;4.896;2022-12-18T09:35:48;99640.13;;;-2.19;78.75
46942;BME280;32676;52.630;4.896;2022-12-18T09:38:16;99654.69;;;-2.12;78.77
46942;BME280;32676;52.630;4.896;2022-12-18T09:40:48;99650.41;;;-2.13;78.54
46942;BME280;32676;52.630;4.896;2022-12-18T09:43:17;99651.28;;;-2.13;78.41
46942;BME280;32676;52.630;4.896;2022-12-18T09:45:47;99646.13;;;-2.17;78.46
46942;BME280;32676;52.630;4.896;2022-12-18T09:48:18;99665.84;;;-2.13;78.34
46942;BME280;32676;52.630;4.896;2022-12-18T09:50:46;99689.00;;;-2.12;78.37
46942;BME280;32676;52.630;4.896;2022-12-18T09:53:17;99736.22;;;-1.92;78.26
46942;BME280;32676;52.630;4.896;2022-12-18T09:55:48;99743.06;;;-1.98;78.02
46942;BME280;32676;52.630;4.896;2022-12-18T09:58:20;99799.72;;;-1.79;78.17
46942;BME280;32676;52.630;4.896;2022-12-18T10:00:51;99808.31;;;-1.74;77.90
46942;BME280;32676;52.630;4.896;2022-12-18T10:03:17;99834.06;;;-1.68;77.85
46942;BME280;32676;52.630;4.896;2022-12-18T10:05:53;99844.38;;;-1.68;77.61
46942;BME280;32676;52.630;4.896;2022-12-18T10:08:32;99857.28;;;-1.63;77.48
46942;BME280;32676;52.630;4.896;2022-12-18T10:11:16;99858.97;;;-1.70;77.36
46942;BME280;32676;52.630;4.896;2022-12-18T10:13:49;99895.06;;;-1.56;77.13
46942;BME280;32676;52.630;4.896;2022-12-18T10:16:25;99919.09;;;-1.48;76.98
46942;BME280;32676;52.630;4.896;2022-12-18T10:19:04;99950.03;;;-1.48;77.06
46942;BME280;32676;52.630;4.896;2022-12-18T10:21:41;99976.69;;;-1.35;76.65
46942;BME280;32676;52.630;4.896;2022-12-18T10:24:18;99993.88;;;-1.34;76.37
46942;BME280;32676;52.630;4.896;2022-12-18T10:26:49;100004.19;;;-1.28;76.25
46942;BME280;32676;52.630;4.896;2022-12-18T10:29:18;100008.50;;;-1.27;75.93
46942;BME280;32676;52.630;4.896;2022-12-18T10:31:45;100038.59;;;-1.20;75.88
46942;BME280;32676;52.630;4.896;2022-12-18T10:34:12;100060.09;;;-1.14;75.54
46942;BME280;32676;52.630;4.896;2022-12-18T10:36:40;100074.69;;;-1.10;75.53
46942;BME280;32676;52.630;4.896;2022-12-18T10:39:18;100097.91;;;-1.06;75.36
46942;BME280;32676;52.630;4.896;2022-12-18T10:41:44;100106.50;;;-1.04;75.29
46942;BME280;32676;52.630;4.896;2022-12-18T10:44:17;100085.03;;;-1.07;75.15
46942;BME280;32676;52.630;4.896;2022-12-18T10:46:45;100112.53;;;-1.03;74.95
46942;BME280;32676;52.630;4.896;2022-12-18T10:49:21;100121.97;;;-1.01;74.83
46942;BME280;32676;52.630;4.896;2022-12-18T10:51:48;100129.75;;;-0.96;74.62
46942;BME280;32676;52.630;4.896;2022-12-18T10:54:17;100140.88;;;-0.99;74.66
46942;BME280;32676;52.630;4.896;2022-12-18T10:56:44;100152.94;;;-0.93;74.65
46942;BME280;32676;52.630;4.896;2022-12-18T10:59:14;100131.41;;;-1.04;74.30
46942;BME280;32676;52.630;4.896;2022-12-18T11:01:49;100113.38;;;-1.04;74.20
46942;BME280;32676;52.630;4.896;2022-12-18T11:04:18;100091.88;;;-1.09;74.16
46942;BME280;32676;52.630;4.896;2022-12-18T11:06:59;100073.81;;;-1.14;74.16
46942;BME280;32676;52.630;4.896;2022-12-18T11:09:27;100076.41;;;-1.16;74.07
46942;BME280;32676;52.630;4.896;2022-12-18T11:11:55;100098.75;;;-1.08;74.13
46942;BME280;32676;52.630;4.896;2022-12-18T11:14:28;100103.94;;;-1.05;74.15
46942;BME280;32676;52.630;4.896;2022-12-18T11:16:56;100100.47;;;-1.10;74.10
46942;BME280;32676;52.630;4.896;2022-12-18T11:19:33;100125.44;;;-1.02;74.11
46942;BME280;32676;52.630;4.896;2022-12-18T11:22:01;100141.78;;;-0.98;74.04
46942;BME280;32676;52.630;4.896;2022-12-18T11:24:30;100141.78;;;-0.98;74.06
46942;BME280;32676;52.630;4.896;2022-12-18T11:26:58;100140.00;;;-1.04;74.19
46942;BME280;32676;52.630;4.896;2022-12-18T11:29:34;100164.13;;;-0.94;74.09
46942;BME280;32676;52.630;4.896;2022-12-18T11:32:22;100186.50;;;-0.87;74.14
46942;BME280;32676;52.630;4.896;2022-12-18T11:34:53;100191.66;;;-0.90;74.18
46942;BME280;32676;52.630;4.896;2022-12-18T11:37:24;100201.97;;;-0.84;74.14
46942;BME280;32676;52.630;4.896;2022-12-18T11:39:54;100220.06;;;-0.79;74.08
46942;BME280;32676;52.630;4.896;2022-12-18T11:42:27;100235.56;;;-0.78;74.10
46942;BME280;32676;52.630;4.896;2022-12-18T11:45:01;100232.09;;;-0.77;74.15
46942;BME280;32676;52.630;4.896;2022-12-18T11:47:38;100211.44;;;-0.84;74.01
46942;BME280;32676;52.630;4.896;2022-12-18T11:50:14;100221.75;;;-0.86;74.04
46942;BME280;32676;52.630;4.896;2022-12-18T11:52:42;100263.09;;;-0.69;74.08
46942;BME280;32676;52.630;4.896;2022-12-18T11:55:12;100270.84;;;-0.67;74.15
46942;BME280;32676;52.630;4.896;2022-12-18T11:57:46;100289.78;;;-0.62;74.05
46942;BME280;32676;52.630;4.896;2022-12-18T12:00:19;100326.81;;;-0.52;74.13
46942;BME280;32676;52.630;4.896;2022-12-18T12:03:08;100338.84;;;-0.51;74.02
46942;BME280;32676;52.630;4.896;2022-12-18T12:05:48;100344.03;;;-0.51;74.02
46942;BME280;32676;52.630;4.896;2022-12-18T12:08:26;100368.13;;;-0.46;73.99
46942;BME280;32676;52.630;4.896;2022-12-18T12:11:02;100382.78;;;-0.41;74.19
46942;BME280;32676;52.630;4.896;2022-12-18T12:13:41;100400.00;;;-0.36;74.02
46942;BME280;32676;52.630;4.896;2022-12-18T12:16:17;100389.66;;;-0.43;74.16
46942;BME280;32676;52.630;4.896;2022-12-18T12:18:58;100400.88;;;-0.37;73.62
46942;BME280;32676;52.630;4.896;2022-12-18T12:21:36;100387.97;;;-0.44;73.85
46942;BME280;32676;52.630;4.896;2022-12-18T12:24:13;100417.25;;;-0.32;73.67
46942;BME280;32676;52.630;4.896;2022-12-18T12:26:49;100442.22;;;-0.28;73.60
46942;BME280;32676;52.630;4.896;2022-12-18T12:29:29;100465.53;;;-0.19;73.47
46942;BME280;32676;52.630;4.896;2022-12-18T12:32:16;100500.84;;;-0.12;73.54
46942;BME280;32676;52.630;4.896;2022-12-18T12:34:54;100522.41;;;-0.07;73.09
46942;BME280;32676;52.630;4.896;2022-12-18T12:37:38;100529.28;;;-0.04;73.16
46942;BME280;32676;52.630;4.896;2022-12-18T12:40:12;100525.00;;;-0.07;72.95
46942;BME280;32676;52.630;4.896;2022-12-18T12:42:46;100524.13;;;-0.06;72.76
46942;BME280;32676;52.630;4.896;2022-12-18T12:45:36;100531.03;;;-0.05;72.84
46942;BME280;32676;52.630;4.896;2022-12-18T12:48:07;100532.78;;;-0.04;72.67
46942;BME280;32676;52.630;4.896;2022-12-18T12:50:41;100515.50;;;-0.11;72.55
46942;BME280;32676;52.630;4.896;2022-12-18T12:53:21;100506.00;;;-0.13;72.64
46942;BME280;32676;52.630;4.896;2022-12-18T12:55:49;100497.38;;;-0.15;72.53
46942;BME280;32676;52.630;4.896;2022-12-18T12:58:22;100493.97;;;-0.14;72.59
46942;BME280;32676;52.630;4.896;2022-12-18T13:01:01;100482.75;;;-0.18;72.68
46942;BME280;32676;52.630;4.896;2022-12-18T13:03:41;100468.09;;;-0.21;72.69
46942;BME280;32676;52.630;4.896;2022-12-18T13:06:13;100472.41;;;-0.21;72.93
46942;BME280;32676;52.630;4.896;2022-12-18T13:08:55;100470.66;;;-0.25;73.11
46942;BME280;32676;52.630;4.896;2022-12-18T13:11:39;100487.03;;;-0.17;73.37